createdAt,value
2019-04-22T00:01:45.677Z,94756.30
2019-04-22T00:04:33.851Z,94751.73
2019-04-22T00:07:15.968Z,94751.30
2019-04-22T00:09:51.507Z,94740.06
2019-04-22T00:12:35.872Z,94740.10
2019-04-22T00:15:02.179Z,94740.20
2019-04-22T00:20:08.739Z,94734.10
2019-04-22T00:22:46.222Z,94738.67
2019-04-22T00:25:27.932Z,94729.16
2019-04-22T00:28:00.856Z,94725.08
2019-04-22T00:30:28.130Z,94730.81
2019-04-22T00:33:09.006Z,94732.75
2019-04-22T00:35:41.840Z,94726.19
2019-04-22T00:38:23.470Z,94718.24
2019-04-22T00:40:55.868Z,94714.60
2019-04-22T00:43:32.487Z,94715.33
2019-04-22T00:46:03.995Z,94708.42
2019-04-22T00:48:48.688Z,94702.27
2019-04-22T00:51:12.352Z,94693.99
2019-04-22T00:53:48.867Z,94695.40
2019-04-22T00:56:32.834Z,94689.60
2019-04-22T00:58:56.575Z,94695.71
2019-04-22T01:01:32.121Z,94695.34
2019-04-22T01:04:12.488Z,94697.88
2019-04-22T01:06:39.410Z,94690.27
2019-04-22T01:09:16.905Z,94690.22
2019-04-22T01:11:44.945Z,94692.88
2019-04-22T01:14:25.908Z,94690.28
2019-04-22T01:16:59.658Z,94688.33
2019-04-22T01:19:47.155Z,94685.65
2019-04-22T01:22:16.340Z,94682.19
2019-04-22T01:24:48.607Z,94682.33
2019-04-22T01:27:17.402Z,94679.80
2019-04-22T01:29:54.307Z,94681.80
2019-04-22T01:32:22.708Z,94682.03
2019-04-22T01:35:03.539Z,94682.15
2019-04-22T01:37:44.448Z,94673.73
2019-04-22T01:40:24.029Z,94676.20
2019-04-22T01:43:03.798Z,94667.91
2019-04-22T01:45:34.664Z,94666.27
2019-04-22T01:48:12.434Z,94664.20
2019-04-22T01:50:37.068Z,94656.65
2019-04-22T01:53:21.572Z,94649.25
2019-04-22T01:55:55.434Z,94656.77
2019-04-22T01:58:26.243Z,94656.48
2019-04-22T02:01:00.180Z,94657.03
2019-04-22T02:03:42.950Z,94653.84
2019-04-22T02:06:13.681Z,94660.98
2019-04-22T02:11:26.537Z,94650.89
2019-04-22T02:13:49.803Z,94646.67
2019-04-22T02:16:34.619Z,94647.91
2019-04-22T02:19:11.701Z,94640.97
2019-04-22T02:21:38.218Z,94645.61
2019-04-22T02:24:20.073Z,94642.48
2019-04-22T02:27:06.250Z,94638.72
2019-04-22T02:29:26.391Z,94646.05
2019-04-22T02:37:13.387Z,94640.61
2019-04-22T02:39:48.834Z,94644.94
2019-04-22T02:42:14.131Z,94647.45
2019-04-22T03:00:37.681Z,94635.41
2019-04-22T03:03:18.676Z,94632.33
2019-04-22T03:05:41.084Z,94624.47
2019-04-22T03:08:14.906Z,94621.63
2019-04-22T03:13:23.473Z,94615.08
2019-04-22T03:16:01.066Z,94621.68
2019-04-22T03:18:42.117Z,94613.27
2019-04-22T03:23:45.602Z,94609.88
2019-04-22T03:42:09.871Z,94596.45
2019-04-22T03:44:56.049Z,94587.84
2019-04-22T03:47:29.988Z,94584.05
2019-04-22T04:05:45.496Z,94559.95
2019-04-22T04:15:34.254Z,94545.36
2019-04-22T04:18:19.197Z,94550.77
2019-04-22T04:21:09.102Z,94549.22
2019-04-22T04:26:02.342Z,94549.33
2019-04-22T04:28:50.318Z,94534.91
2019-04-22T04:31:17.729Z,94545.48
2019-04-22T04:33:46.556Z,94549.17
2019-04-22T04:36:16.506Z,94543.98
2019-04-22T04:39:03.022Z,94533.50
2019-04-22T04:41:34.324Z,94534.97
2019-04-22T04:46:47.441Z,94529.31
2019-04-22T04:49:18.731Z,94529.97
2019-04-22T04:54:31.696Z,94534.08
2019-04-22T04:56:56.001Z,94540.58
2019-04-22T05:00:03.791Z,94531.88
2019-04-22T05:02:09.907Z,94536.09
2019-04-22T05:04:56.786Z,94537.55
2019-04-22T05:07:18.687Z,94548.84
2019-04-22T05:09:44.759Z,94551.92
2019-04-22T05:12:42.298Z,94547.30
2019-04-22T05:15:00.917Z,94535.92
2019-04-22T05:17:41.248Z,94530.14
2019-04-22T05:20:13.064Z,94536.11
2019-04-22T05:22:41.287Z,94526.00
2019-04-22T05:25:17.912Z,94532.33
2019-04-22T05:27:49.206Z,94529.30
2019-04-22T05:32:56.651Z,94525.47
2019-04-22T05:38:13.357Z,94525.31
2019-04-22T05:40:56.568Z,94524.56
2019-04-22T05:43:16.321Z,94519.33
2019-04-22T05:45:49.478Z,94507.96
2019-04-22T05:48:27.716Z,94506.80
2019-04-22T05:50:59.439Z,94507.64
2019-04-22T05:53:32.450Z,94504.13
2019-04-22T05:56:08.315Z,94508.13
2019-04-22T05:58:45.275Z,94496.81
2019-04-22T06:06:22.649Z,94488.55
2019-04-22T06:09:10.480Z,94477.10
2019-04-22T06:11:31.837Z,94475.40
2019-04-22T06:14:22.994Z,94478.25
2019-04-22T06:19:33.218Z,94466.59
2019-04-22T06:22:13.107Z,94466.23
2019-04-22T06:24:42.377Z,94470.19
2019-04-22T06:27:21.633Z,94464.25
2019-04-22T06:29:49.499Z,94456.31
2019-04-22T06:35:15.080Z,94450.16
2019-04-22T06:37:53.415Z,94445.46
2019-04-22T06:40:13.447Z,94440.30
2019-04-22T06:42:51.980Z,94438.42
2019-04-22T06:45:23.430Z,94435.06
2019-04-22T06:50:38.524Z,94427.84
2019-04-22T06:53:25.225Z,94420.52
2019-04-22T06:55:41.454Z,94415.70
2019-04-22T06:58:15.261Z,94419.13
2019-04-22T07:00:44.436Z,94414.28
2019-04-22T07:05:59.631Z,94412.73
2019-04-22T07:11:06.178Z,94405.39
2019-04-22T07:13:52.158Z,94406.75
2019-04-22T07:16:30.010Z,94396.60
2019-04-22T07:18:56.759Z,94402.27
2019-04-22T07:21:33.505Z,94394.43
2019-04-22T07:26:44.966Z,94381.55
2019-04-22T07:31:57.043Z,94378.92
2019-04-22T07:34:42.712Z,94375.10
2019-04-22T07:37:18.211Z,94369.34
2019-04-22T07:39:35.470Z,94359.64
2019-04-22T07:42:15.357Z,94363.04
2019-04-22T07:44:45.162Z,94357.44
2019-04-22T07:47:25.750Z,94349.48
2019-04-22T07:50:03.107Z,94355.33
2019-04-22T07:55:06.326Z,94346.97
2019-04-22T07:57:36.646Z,94341.41
2019-04-22T08:00:16.010Z,94335.50
2019-04-22T08:02:51.694Z,94334.11
2019-04-22T08:05:30.382Z,94332.33
2019-04-22T08:08:09.544Z,94319.52
2019-04-22T08:10:46.800Z,94325.09
2019-04-22T08:13:11.708Z,94322.52
2019-04-22T08:15:54.183Z,94323.37
2019-04-22T08:18:28.972Z,94319.31
2019-04-22T08:21:00.129Z,94301.43
2019-04-22T08:23:39.459Z,94303.67
2019-04-22T08:26:16.771Z,94304.58
2019-04-22T08:31:20.452Z,94300.88
2019-04-22T08:33:54.607Z,94300.92
2019-04-22T08:36:36.392Z,94296.11
2019-04-22T08:39:09.049Z,94289.33
2019-04-22T08:41:37.437Z,94287.56
2019-04-22T08:46:52.139Z,94292.63
2019-04-22T08:49:24.559Z,94289.75
2019-04-22T08:52:01.447Z,94285.95
2019-04-22T08:54:36.039Z,94285.13
2019-04-22T08:57:16.051Z,94278.13
2019-04-22T08:59:50.254Z,94272.00
2019-04-22T09:02:25.756Z,94268.59
2019-04-22T09:04:53.875Z,94267.63
2019-04-22T09:07:31.552Z,94261.43
2019-04-22T09:10:02.000Z,94262.86
2019-04-22T09:12:51.813Z,94255.01
2019-04-22T09:15:11.268Z,94253.80
2019-04-22T09:17:58.678Z,94251.25
2019-04-22T09:20:28.133Z,94244.02
2019-04-22T09:23:07.256Z,94248.20
2019-04-22T09:28:19.547Z,94227.09
2019-04-22T09:30:56.631Z,94222.20
2019-04-22T09:33:27.194Z,94220.14
2019-04-22T09:41:13.918Z,94199.94
2019-04-22T09:43:49.052Z,94197.60
2019-04-22T09:46:25.074Z,94194.24
2019-04-22T09:49:03.389Z,94190.23
2019-04-22T09:51:25.363Z,94187.70
2019-04-22T09:54:12.494Z,94186.37
2019-04-22T09:56:37.494Z,94180.01
2019-04-22T09:59:08.767Z,94176.53
2019-04-22T10:01:59.454Z,94175.78
2019-04-22T10:04:23.444Z,94174.20
2019-04-22T10:06:54.729Z,94167.16
2019-04-22T10:12:10.180Z,94151.16
2019-04-22T10:14:45.647Z,94149.90
2019-04-22T10:17:14.187Z,94144.99
2019-04-22T10:19:52.980Z,94138.17
2019-04-22T10:22:32.469Z,94145.70
2019-04-22T10:25:05.128Z,94135.59
2019-04-22T10:27:39.858Z,94130.97
2019-04-22T10:30:08.768Z,94127.67
2019-04-22T10:32:50.876Z,94127.28
2019-04-22T10:35:17.095Z,94120.27
2019-04-22T10:37:48.110Z,94120.48
2019-04-22T10:40:38.772Z,94115.53
2019-04-22T10:43:12.163Z,94110.34
2019-04-22T10:45:46.121Z,94101.11
2019-04-22T10:48:19.037Z,94101.41
2019-04-22T10:50:52.691Z,94099.55
2019-04-22T10:53:31.139Z,94090.45
2019-04-22T10:56:05.210Z,94087.18
2019-04-22T10:58:38.525Z,94071.97
2019-04-22T11:01:11.670Z,94070.58
2019-04-22T11:03:45.608Z,94068.63
2019-04-22T11:06:21.193Z,94059.52
2019-04-22T11:09:00.002Z,94054.63
2019-04-22T11:11:41.161Z,94045.48
2019-04-22T11:14:06.973Z,94041.30
2019-04-22T11:16:39.588Z,94040.05
2019-04-22T11:19:13.834Z,94043.56
2019-04-22T11:22:02.639Z,94031.51
2019-04-22T11:24:26.657Z,94023.75
2019-04-22T11:27:01.147Z,94027.97
2019-04-22T11:29:35.336Z,94024.34
2019-04-22T11:32:08.596Z,94017.45
2019-04-22T11:34:42.880Z,94022.05
2019-04-22T11:37:16.609Z,94021.41
2019-04-22T11:40:02.100Z,94022.87
2019-04-22T11:42:25.847Z,94012.51
2019-04-22T11:44:59.353Z,94002.94
2019-04-22T11:47:33.174Z,94004.86
2019-04-22T11:50:06.424Z,94001.97
2019-04-22T11:52:40.715Z,93998.59
2019-04-22T11:55:15.094Z,93998.28
2019-04-22T11:57:48.006Z,94001.01
2019-04-22T12:00:30.566Z,93999.06
2019-04-22T12:03:05.227Z,93997.22
2019-04-22T12:05:41.960Z,93996.13
2019-04-22T12:08:15.512Z,93982.06
2019-04-22T12:10:53.248Z,93981.11
2019-04-22T12:13:24.080Z,93977.43
2019-04-22T12:15:57.235Z,93976.17
2019-04-22T12:18:31.247Z,93975.42
2019-04-22T12:21:05.425Z,93969.27
2019-04-22T12:23:39.151Z,93968.46
2019-04-22T12:26:16.227Z,93971.56
2019-04-22T12:28:48.863Z,93968.31
2019-04-22T12:31:23.768Z,93963.27
2019-04-22T12:33:57.322Z,93961.06
2019-04-22T12:36:30.775Z,93958.59
2019-04-22T12:39:05.191Z,93954.50
2019-04-22T12:41:38.398Z,93949.95
2019-04-22T12:44:11.733Z,93947.52
2019-04-22T12:46:46.018Z,93937.66
2019-04-22T12:49:20.348Z,93938.79
2019-04-22T12:51:54.786Z,93936.59
2019-04-22T12:54:29.074Z,93931.48
2019-04-22T12:57:03.817Z,93927.23
2019-04-22T12:59:37.353Z,93926.76
2019-04-22T13:02:11.202Z,93917.48
2019-04-22T13:04:45.897Z,93919.72
2019-04-22T13:07:19.922Z,93907.36
2019-04-22T13:09:53.206Z,93901.38
2019-04-22T13:12:26.672Z,93906.66
2019-04-22T13:15:01.106Z,93892.79
2019-04-22T13:17:35.727Z,93891.67
2019-04-22T13:20:13.007Z,93891.16
2019-04-22T13:22:45.075Z,93890.69
2019-04-22T13:25:21.626Z,93881.94
2019-04-22T13:27:55.290Z,93881.31
2019-04-22T13:30:30.503Z,93870.83
2019-04-22T13:33:04.972Z,93870.55
2019-04-22T13:35:39.359Z,93874.66
2019-04-22T13:38:12.992Z,93872.13
2019-04-22T13:41:00.648Z,93867.76
2019-04-22T13:43:22.821Z,93868.00
2019-04-22T13:45:56.378Z,93862.69
2019-04-22T13:48:46.882Z,93861.23
2019-04-22T13:51:43.251Z,93863.78
2019-04-22T13:56:30.333Z,93832.68
2019-04-22T13:59:00.642Z,93842.11
2019-04-22T14:01:28.234Z,93835.47
2019-04-22T14:04:22.865Z,93835.81
2019-04-22T14:06:56.688Z,93838.33
2019-04-22T14:09:46.526Z,93826.00
2019-04-22T14:12:21.259Z,93816.52
2019-04-22T14:14:58.392Z,93817.86
2019-04-22T14:17:31.644Z,93814.28
2019-04-22T14:20:04.924Z,93805.13
2019-04-22T14:22:38.851Z,93801.35
2019-04-22T14:25:12.682Z,93806.58
2019-04-22T14:27:53.737Z,93798.53
2019-04-22T14:30:21.037Z,93801.05
2019-04-22T14:32:54.155Z,93798.70
2019-04-22T14:35:27.396Z,93791.06
2019-04-22T14:38:01.405Z,93793.25
2019-04-22T14:40:36.434Z,93779.63
2019-04-22T14:43:34.449Z,93776.70
2019-04-22T14:46:23.378Z,93770.89
2019-04-22T14:48:46.310Z,93773.53
2019-04-22T14:51:11.529Z,93779.93
2019-04-22T14:53:44.815Z,93773.16
2019-04-22T14:56:02.299Z,93770.53
2019-04-22T14:58:35.286Z,93769.86
2019-04-22T15:01:08.950Z,93775.47
2019-04-22T15:03:44.059Z,93771.27
2019-04-22T15:06:18.046Z,93769.13
2019-04-22T15:08:54.010Z,93762.36
2019-04-22T15:11:26.791Z,93758.98
2019-04-22T15:14:01.315Z,93759.52
2019-04-22T15:16:53.050Z,93759.07
2019-04-22T15:19:51.803Z,93757.28
2019-04-22T15:22:26.303Z,93756.02
2019-04-22T15:25:00.638Z,93756.02
2019-04-22T15:27:33.664Z,93759.15
2019-04-22T15:30:07.721Z,93755.56
2019-04-22T15:32:41.258Z,93752.94
2019-04-22T15:35:15.535Z,93753.52
2019-04-22T15:37:51.221Z,93749.22
2019-04-22T15:40:26.806Z,93742.51
2019-04-22T15:42:59.157Z,93745.55
2019-04-22T15:45:32.622Z,93736.93
2019-04-22T15:48:06.242Z,93744.77
2019-04-22T15:50:40.527Z,93736.59
2019-04-22T15:53:13.877Z,93736.95
2019-04-22T15:55:47.141Z,93732.37
2019-04-22T15:58:21.610Z,93720.62
2019-04-22T16:01:08.144Z,93725.39
2019-04-22T16:03:28.988Z,93729.50
2019-04-22T16:06:02.284Z,93725.34
2019-04-22T16:08:38.761Z,93730.78
2019-04-22T16:11:11.911Z,93722.05
2019-04-22T16:13:46.534Z,93716.73
2019-04-22T16:16:20.696Z,93704.04
2019-04-22T16:18:54.224Z,93716.27
2019-04-22T16:21:38.217Z,93717.01
2019-04-22T16:24:15.957Z,93720.09
2019-04-22T16:27:02.468Z,93724.41
2019-04-22T16:29:37.114Z,93727.75
2019-04-22T16:32:11.530Z,93716.93
2019-04-22T16:34:45.832Z,93708.83
2019-04-22T16:37:19.002Z,93703.48
2019-04-22T16:39:52.440Z,93704.89
2019-04-22T16:42:33.799Z,93706.70
2019-04-22T16:44:59.969Z,93701.75
2019-04-22T16:47:33.353Z,93699.63
2019-04-22T16:50:08.101Z,93694.09
2019-04-22T16:52:41.790Z,93697.66
2019-04-22T16:55:15.005Z,93688.34
2019-04-22T16:57:48.277Z,93684.61
2019-04-22T17:00:22.614Z,93675.12
2019-04-22T17:03:14.556Z,93679.19
2019-04-22T17:06:05.413Z,93672.15
2019-04-22T17:08:44.377Z,93672.47
2019-04-22T17:11:20.190Z,93665.56
2019-04-22T17:13:53.291Z,93672.39
2019-04-22T17:16:28.483Z,93676.01
2019-04-22T17:19:02.558Z,93671.84
2019-04-22T17:21:35.592Z,93677.84
2019-04-22T17:24:09.781Z,93675.02
2019-04-22T17:26:44.218Z,93676.56
2019-04-22T17:29:18.580Z,93670.01
2019-04-22T17:31:59.489Z,93673.20
2019-04-22T17:34:27.523Z,93670.91
2019-04-22T17:37:04.126Z,93669.83
2019-04-22T17:39:45.215Z,93667.19
2019-04-22T17:42:29.267Z,93662.42
2019-04-22T17:45:34.134Z,93667.52
2019-04-22T17:48:27.661Z,93664.12
2019-04-22T17:51:05.592Z,93668.65
2019-04-22T17:53:33.517Z,93658.51
2019-04-22T17:56:08.752Z,93657.95
2019-04-22T17:58:42.234Z,93655.08
2019-04-22T18:01:20.688Z,93652.13
2019-04-22T18:03:40.748Z,93652.47
2019-04-22T18:06:14.183Z,93648.34
2019-04-22T18:09:01.797Z,93648.62
2019-04-22T18:11:40.191Z,93645.61
2019-04-22T18:14:30.070Z,93644.25
2019-04-22T18:16:46.110Z,93637.25
2019-04-22T18:19:19.359Z,93638.77
2019-04-22T18:21:47.570Z,93634.81
2019-04-22T18:24:18.258Z,93634.29
2019-04-22T18:27:18.970Z,93624.58
2019-04-22T18:29:41.736Z,93628.74
2019-04-22T18:32:03.022Z,93629.61
2019-04-22T18:34:39.922Z,93629.16
2019-04-22T18:37:17.497Z,93629.77
2019-04-22T18:39:56.844Z,93633.00
2019-04-22T18:42:26.968Z,93631.77
2019-04-22T18:45:26.049Z,93631.05
2019-04-22T18:47:38.775Z,93625.80
2019-04-22T18:50:21.910Z,93625.57
2019-04-22T18:53:07.094Z,93626.13
2019-04-22T18:55:51.609Z,93624.57
2019-04-22T18:58:27.494Z,93616.95
2019-04-22T19:00:48.312Z,93622.47
2019-04-22T19:03:26.337Z,93624.56
2019-04-22T19:06:32.271Z,93625.31
2019-04-22T19:08:55.442Z,93630.53
2019-04-22T19:11:37.205Z,93635.20
2019-04-22T19:14:19.092Z,93628.87
2019-04-22T19:16:59.241Z,93629.45
2019-04-22T19:19:30.331Z,93630.70
2019-04-22T19:21:47.701Z,93631.29
2019-04-22T19:24:21.281Z,93632.57
2019-04-22T19:26:59.080Z,93636.69
2019-04-22T19:29:31.176Z,93628.01
2019-04-22T19:32:01.900Z,93628.23
2019-04-22T19:34:38.207Z,93623.28
2019-04-22T19:37:13.230Z,93622.79
2019-04-22T19:40:00.883Z,93623.77
2019-04-22T19:42:30.990Z,93631.53
2019-04-22T19:44:55.079Z,93621.18
2019-04-22T19:47:38.725Z,93623.54
2019-04-22T19:50:13.150Z,93623.83
2019-04-22T19:52:39.932Z,93620.77
2019-04-22T19:55:16.903Z,93621.42
2019-04-22T19:57:50.716Z,93613.54
2019-04-22T20:00:28.360Z,93610.35
2019-04-22T20:03:36.364Z,93611.44
2019-04-22T20:06:16.561Z,93608.61
2019-04-22T20:08:48.866Z,93610.12
2019-04-22T20:11:23.115Z,93597.36
2019-04-22T20:14:02.989Z,93591.16
2019-04-22T20:16:27.299Z,93582.38
2019-04-22T20:19:12.006Z,93576.54
2019-04-22T20:21:40.598Z,93570.17
2019-04-22T20:24:04.389Z,93574.36
2019-04-22T20:26:56.560Z,93575.16
2019-04-22T20:29:35.274Z,93574.50
2019-04-22T20:31:58.987Z,93568.87
2019-04-22T20:34:42.230Z,93568.27
2019-04-22T20:37:29.476Z,93569.98
2019-04-22T20:39:46.887Z,93556.06
2019-04-22T20:42:33.121Z,93552.83
2019-04-22T20:45:01.942Z,93548.28
2019-04-22T20:47:29.517Z,93554.03
2019-04-22T20:50:05.332Z,93551.42
2019-04-22T20:52:50.379Z,93544.53
2019-04-22T20:55:10.705Z,93544.53
2019-04-22T20:57:57.966Z,93546.36
2019-04-22T21:00:20.049Z,93541.58
2019-04-22T21:02:48.879Z,93542.63
2019-04-22T21:05:24.964Z,93545.53
2019-04-22T21:08:15.497Z,93543.94
2019-04-22T21:10:33.443Z,93533.75
2019-04-22T21:13:11.211Z,93535.00
2019-04-22T21:15:57.543Z,93539.83
2019-04-22T21:18:26.603Z,93534.72
2019-04-22T21:21:04.045Z,93530.42
2019-04-22T21:23:27.613Z,93534.89
2019-04-22T21:26:08.353Z,93529.30
2019-04-22T21:28:44.504Z,93536.54
2019-04-22T21:31:24.845Z,93539.33
2019-04-22T21:33:50.319Z,93534.98
2019-04-22T21:38:57.585Z,93517.19
2019-04-22T21:41:36.758Z,93519.46
2019-04-22T21:44:10.393Z,93520.17
2019-04-22T21:46:51.727Z,93508.06
2019-04-22T21:49:24.959Z,93510.73
2019-04-22T21:52:13.255Z,93519.95
2019-04-22T21:54:34.250Z,93506.80
2019-04-22T21:57:46.539Z,93504.89
2019-04-22T21:59:57.950Z,93506.40
2019-04-22T22:02:43.870Z,93509.02
2019-04-22T22:05:04.503Z,93507.45
2019-04-22T22:07:27.621Z,93500.77
2019-04-22T22:10:16.863Z,93500.48
2019-04-22T22:12:56.022Z,93502.13
2019-04-22T22:15:30.352Z,93499.36
2019-04-22T22:17:54.497Z,93493.94
2019-04-22T22:20:46.290Z,93493.73
2019-04-22T22:23:22.237Z,93498.47
2019-04-22T22:25:43.646Z,93497.89
2019-04-22T22:28:42.027Z,93499.14
2019-04-22T22:31:02.029Z,93495.62
2019-04-22T22:33:32.165Z,93491.43
2019-04-22T22:36:03.586Z,93490.45
2019-04-22T22:38:29.791Z,93479.53
2019-04-22T22:40:53.991Z,93485.74
2019-04-22T22:43:34.835Z,93492.75
2019-04-22T22:46:11.157Z,93485.19
2019-04-22T22:49:03.207Z,93495.61
2019-04-22T22:51:43.020Z,93488.79
2019-04-22T22:54:06.410Z,93484.55
2019-04-22T22:56:47.514Z,93484.87
2019-04-22T22:59:18.008Z,93479.34
2019-04-22T23:01:50.920Z,93477.20
2019-04-22T23:04:29.052Z,93478.65
2019-04-22T23:07:00.341Z,93471.61
2019-04-22T23:09:30.667Z,93478.46
2019-04-22T23:14:44.232Z,93464.84
2019-04-22T23:17:04.142Z,93467.73
2019-04-22T23:19:32.601Z,93467.22
2019-04-22T23:22:20.384Z,93465.07
2019-04-22T23:25:07.714Z,93458.17
2019-04-22T23:27:44.567Z,93457.47
2019-04-22T23:30:23.930Z,93459.41
2019-04-22T23:33:03.370Z,93464.43
2019-04-22T23:35:46.972Z,93460.58
2019-04-22T23:38:20.738Z,93452.94
2019-04-22T23:41:03.730Z,93447.13
2019-04-22T23:43:42.714Z,93455.72
2019-04-22T23:46:16.957Z,93455.67
2019-04-22T23:48:39.114Z,93450.09
2019-04-22T23:51:19.333Z,93447.25
2019-04-22T23:56:32.208Z,93446.36
2019-04-22T23:59:10.292Z,93446.11
